Terminal Aerodrome Forecast
Issued by NWS Twin Cities, MN

Home | Current Version | Previous Version | Graphics & Text | Print | Product List | Glossary On
Versions: 1 2 3 4 5 6 7 8 9 10 11 12 13 14 15 16
790
FTUS43 KMPX 030300 AAA
TAFSTC
TAF AMD
KSTC 030300Z 0303/0324 01018G24KT 4SM -SN BLSN SCT025 OVC035
     FM030600 35020G28KT 3SM -SN BLSN OVC015
     FM031200 33018G24KT 4SM BLSN OVC020
     FM031800 32014G20KT 6SM BLSN SCT020=

USA.gov is the U.S. government's official web portal to all federal, state and local government web resources and services.